Time;durP1;ratioP1;P1;durP2;ratioP2;P2;SDS_P1;SDS_P2;PMS_P1;PMS_P2;Temp;Humidity;BMP_temperature;BMP_pressure;BME280_temperature;BME280_humidity;BME280_pressure;Samples;Min_cycle;Max_cycle;Signal;HPM_P1;HPM_P2
2023/07/02 00:02:02;;;;;;;2.75;1.95;;;;;;;;;;5036424;28;20510;-61
2023/07/02 00:04:31;;;;;;;2.60;1.98;;;;;;;;;;5020871;28;20423;-61
2023/07/02 00:07:16;;;;;;;3.00;1.80;;;;;;;;;;5013599;28;20553;-61
2023/07/02 00:09:56;;;;;;;;;;;;;;;;;;;;;
2023/07/02 00:12:25;;;;;;;5.47;2.00;;;;;;;;;;5030142;28;20512;-61
2023/07/02 00:17:57;;;;;;;2.65;2.20;;;;;;;;;;5033566;28;20042;-61
2023/07/02 00:20:34;;;;;;;2.87;1.60;;;;;;;;;;5011768;28;20390;-61
2023/07/02 00:23:27;;;;;;;3.10;2.08;;;;;;;;;;5032274;28;20021;-61
2023/07/02 00:26:17;;;;;;;4.05;1.98;;;;;;;;;;5031368;28;20454;-61
2023/07/02 00:28:45;;;;;;;2.55;1.90;;;;;;;;;;5031222;28;20130;-61
2023/07/02 00:31:11;;;;;;;2.90;1.80;;;;;;;;;;5042290;28;20037;-61
2023/07/02 00:33:53;;;;;;;3.70;2.20;;;;;;;;;;5031573;28;20021;-61
2023/07/02 00:39:18;;;;;;;2.78;1.90;;;;;;;;;;5046271;28;20022;-61
2023/07/02 00:42:20;;;;;;;2.50;1.67;;;;;;;;;;5031667;28;20017;-61
2023/07/02 00:44:52;;;;;;;3.28;1.75;;;;;;;;;;4931017;29;20576;-61
2023/07/02 00:47:42;;;;;;;7.32;1.77;;;;;;;;;;4951850;28;20046;-61
2023/07/02 00:50:15;;;;;;;3.08;1.88;;;;;;;;;;5027947;28;20117;-61
2023/07/02 00:52:47;;;;;;;2.15;1.50;;;;;;;;;;5031968;28;20379;-61
2023/07/02 00:55:31;;;;;;;3.20;2.03;;;;;;;;;;5030026;28;20034;-61
2023/07/02 00:58:20;;;;;;;3.30;1.92;;;;;;;;;;5011963;28;20033;-61
2023/07/02 01:00:58;;;;;;;;;;;;;;;;;;;;;
2023/07/02 01:03:52;;;;;;;4.47;1.98;;;;;;;;;;5021896;28;20288;-61
2023/07/02 01:06:24;;;;;;;2.63;1.73;;;;;;;;;;5036036;28;20052;-61
2023/07/02 01:09:11;;;;;;;2.28;1.55;;;;;;;;;;5012508;28;20037;-61
2023/07/02 01:12:12;;;;;;;2.47;1.52;;;;;;;;;;5019577;28;20061;-61
2023/07/02 01:14:38;;;;;;;;;;;;;;;;;;4979072;28;20042;-61
2023/07/02 01:17:19;;;;;;;2.30;1.60;;;;;;;;;;5039968;28;19909;-61
2023/07/02 01:19:51;;;;;;;2.13;1.65;;;;;;;;;;5051689;28;20017;-61
2023/07/02 01:22:30;;;;;;;4.65;2.42;;;;;;;;;;5033509;28;20033;-61
2023/07/02 01:24:57;;;;;;;4.53;1.80;;;;;;;;;;5015755;28;20190;-61
2023/07/02 01:27:40;;;;;;;2.97;1.65;;;;;;;;;;5014488;28;20359;-61
2023/07/02 01:30:18;;;;;;;3.33;1.88;;;;;;;;;;5022742;28;20121;-61
2023/07/02 01:32:56;;;;;;;2.35;1.33;;;;;;;;;;5024319;28;20021;-61
2023/07/02 01:38:22;;;;;;;3.05;1.83;;;;;;;;;;5020484;28;20111;-61
2023/07/02 01:41:02;;;;;;;2.72;1.85;;;;;;;;;;5013530;28;20041;-61
2023/07/02 01:43:28;;;;;;;2.85;1.83;;;;;;;;;;5012511;28;20097;-61
2023/07/02 01:46:03;;;;;;;2.40;1.38;;;;;;;;;;5012150;28;20041;-61
2023/07/02 01:48:53;;;;;;;2.50;1.40;;;;;;;;;;5014905;28;20022;-61
2023/07/02 01:51:19;;;;;;;3.38;1.80;;;;;;;;;;5012756;28;20071;-61
2023/07/02 01:54:01;;;;;;;2.85;1.85;;;;;;;;;;5038107;28;20112;-61
2023/07/02 01:56:30;;;;;;;3.10;1.98;;;;;;;;;;5019996;28;20407;-61
2023/07/02 01:59:06;;;;;;;3.50;1.52;;;;;;;;;;5005195;28;20142;-61
2023/07/02 02:01:42;;;;;;;2.80;1.67;;;;;;;;;;5028613;28;20083;-61
2023/07/02 02:04:12;;;;;;;2.55;1.65;;;;;;;;;;5028089;28;20056;-61
2023/07/02 02:06:46;;;;;;;2.88;1.60;;;;;;;;;;5041218;28;20492;-61
2023/07/02 02:09:16;;;;;;;3.03;1.85;;;;;;;;;;5034317;28;20038;-61
2023/07/02 02:12:23;;;;;;;4.85;1.48;;;;;;;;;;5015490;28;20018;-61
2023/07/02 02:14:51;;;;;;;2.35;1.33;;;;;;;;;;5041494;28;20041;-61
2023/07/02 02:17:28;;;;;;;2.10;1.40;;;;;;;;;;5033894;28;20114;-61
2023/07/02 02:19:59;;;;;;;2.20;1.48;;;;;;;;;;5016721;28;20123;-61
2023/07/02 02:22:29;;;;;;;6.30;1.30;;;;;;;;;;5016137;28;20037;-61
2023/07/02 02:25:05;;;;;;;3.92;2.22;;;;;;;;;;5051678;28;20474;-61
2023/07/02 02:27:47;;;;;;;1.98;1.33;;;;;;;;;;5006400;28;20113;-61
2023/07/02 02:30:14;;;;;;;2.35;1.15;;;;;;;;;;5033719;28;20463;-61
2023/07/02 02:32:58;;;;;;;2.42;1.73;;;;;;;;;;5046906;28;20032;-61
2023/07/02 02:35:37;;;;;;;1.83;1.13;;;;;;;;;;5050675;28;20094;-61
2023/07/02 02:38:16;;;;;;;2.13;1.48;;;;;;;;;;5034288;28;20452;-61
2023/07/02 02:40:44;;;;;;;2.45;1.80;;;;;;;;;;5031663;28;20033;-61
2023/07/02 02:43:22;;;;;;;2.95;1.52;;;;;;;;;;5034960;28;20047;-61
2023/07/02 02:46:00;;;;;;;3.08;1.52;;;;;;;;;;5008731;28;20054;-61
2023/07/02 02:48:29;;;;;;;2.20;1.55;;;;;;;;;;5015067;28;20162;-61
2023/07/02 02:51:04;;;;;;;2.20;1.58;;;;;;;;;;5033378;28;20052;-61
2023/07/02 02:53:39;;;;;;;2.45;1.42;;;;;;;;;;5042066;28;20068;-61
2023/07/02 02:56:15;;;;;;;2.63;1.70;;;;;;;;;;5027722;28;20033;-61
2023/07/02 03:01:51;;;;;;;2.20;1.48;;;;;;;;;;5031787;28;20032;-61
2023/07/02 03:04:26;;;;;;;2.60;1.60;;;;;;;;;;5033941;28;20033;-61
2023/07/02 03:06:56;;;;;;;2.28;1.67;;;;;;;;;;5035325;28;20056;-61
2023/07/02 03:09:48;;;;;;;6.70;1.83;;;;;;;;;;5032982;28;20418;-61
2023/07/02 03:12:27;;;;;;;5.07;2.22;;;;;;;;;;5041278;28;20381;-61
2023/07/02 03:14:56;;;;;;;2.65;1.95;;;;;;;;;;4993341;28;20037;-61
2023/07/02 03:17:28;;;;;;;2.30;1.90;;;;;;;;;;5032843;28;20033;-61
2023/07/02 03:20:12;;;;;;;2.72;1.55;;;;;;;;;;5015531;28;20033;-61
2023/07/02 03:22:42;;;;;;;3.00;2.28;;;;;;;;;;5036665;28;20025;-61
2023/07/02 03:25:29;;;;;;;2.17;1.63;;;;;;;;;;5052256;28;20119;-61
2023/07/02 03:28:23;;;;;;;3.22;1.83;;;;;;;;;;5013673;28;20037;-60
2023/07/02 03:30:55;;;;;;;3.10;2.17;;;;;;;;;;5026033;28;20017;-61
2023/07/02 03:33:37;;;;;;;3.50;1.90;;;;;;;;;;5050133;28;20032;-61
2023/07/02 03:36:21;;;;;;;5.15;2.10;;;;;;;;;;5043497;28;20125;-60
2023/07/02 03:38:47;;;;;;;2.80;2.08;;;;;;;;;;5014786;28;20095;-61
2023/07/02 03:41:24;;;;;;;4.55;2.55;;;;;;;;;;5027630;28;20025;-61
2023/07/02 03:44:05;;;;;;;2.60;1.70;;;;;;;;;;5032121;28;20096;-61
2023/07/02 03:46:37;;;;;;;2.90;2.33;;;;;;;;;;5030860;28;20259;-61
2023/07/02 03:49:03;;;;;;;4.38;1.77;;;;;;;;;;5032503;28;20072;-61
2023/07/02 03:51:30;;;;;;;3.40;2.53;;;;;;;;;;5036249;28;20030;-60
2023/07/02 03:54:22;;;;;;;10.32;2.35;;;;;;;;;;5031150;28;20514;-61
2023/07/02 03:57:20;;;;;;;4.53;2.00;;;;;;;;;;5023549;28;20057;-61
2023/07/02 03:59:46;;;;;;;3.67;2.08;;;;;;;;;;5026011;28;20431;-61
2023/07/02 04:02:30;;;;;;;7.15;2.95;;;;;;;;;;5035077;28;20422;-61
2023/07/02 04:05:22;;;;;;;3.13;2.13;;;;;;;;;;5031611;28;20033;-60
2023/07/02 04:08:05;;;;;;;6.07;2.25;;;;;;;;;;5032661;28;20028;-61
2023/07/02 04:10:40;;;;;;;4.32;2.60;;;;;;;;;;5034518;28;20080;-61
2023/07/02 04:13:17;;;;;;;4.43;2.10;;;;;;;;;;5032414;28;20049;-61
2023/07/02 04:15:49;;;;;;;4.15;2.70;;;;;;;;;;5013218;28;20053;-61
2023/07/02 04:18:24;;;;;;;3.28;2.60;;;;;;;;;;5015687;28;20113;-61
2023/07/02 04:20:55;;;;;;;6.95;3.35;;;;;;;;;;5028297;28;20033;-61
2023/07/02 04:23:32;;;;;;;6.93;2.88;;;;;;;;;;5031349;28;20033;-61
2023/07/02 04:26:03;;;;;;;3.78;2.53;;;;;;;;;;5030087;28;20025;-61
2023/07/02 04:28:41;;;;;;;6.53;3.03;;;;;;;;;;5003329;28;20033;-61
2023/07/02 04:31:13;;;;;;;4.80;2.92;;;;;;;;;;5027682;28;20025;-61
2023/07/02 04:36:38;;;;;;;3.97;2.65;;;;;;;;;;5020010;28;20045;-61
2023/07/02 04:42:16;;;;;;;4.15;3.47;;;;;;;;;;5028332;28;20041;-61
2023/07/02 04:45:11;;;;;;;;;;;;;;;;;;;;;
2023/07/02 04:48:00;;;;;;;4.72;2.85;;;;;;;;;;5031298;28;20037;-61
2023/07/02 04:50:29;;;;;;;5.28;3.28;;;;;;;;;;5022116;28;20044;-61
2023/07/02 04:52:59;;;;;;;4.50;3.03;;;;;;;;;;5013994;28;20068;-61
2023/07/02 04:56:03;;;;;;;2.97;2.20;;;;;;;;;;5029987;28;20343;-61
2023/07/02 04:58:19;;;;;;;4.03;2.55;;;;;;;;;;5041100;28;20474;-61
2023/07/02 05:00:56;;;;;;;5.47;2.45;;;;;;;;;;5045671;28;20030;-59
2023/07/02 05:03:24;;;;;;;4.80;2.53;;;;;;;;;;5012385;28;20033;-60
2023/07/02 05:06:16;;;;;;;2.97;2.28;;;;;;;;;;5023584;28;20029;-60
2023/07/02 05:09:06;;;;;;;3.47;2.40;;;;;;;;;;5014115;28;20029;-60
2023/07/02 05:11:55;;;;;;;4.35;2.55;;;;;;;;;;5037419;28;20045;-60
2023/07/02 05:14:23;;;;;;;3.50;2.53;;;;;;;;;;5031660;28;20029;-60
2023/07/02 05:17:06;;;;;;;;;;;;;;;;;;;;;
2023/07/02 05:19:53;;;;;;;4.32;2.80;;;;;;;;;;5028495;28;20033;-59
2023/07/02 05:22:36;;;;;;;4.57;2.85;;;;;;;;;;5023660;28;20047;-60
2023/07/02 05:25:17;;;;;;;3.70;2.67;;;;;;;;;;5020921;28;20048;-60
2023/07/02 05:27:57;;;;;;;3.78;2.75;;;;;;;;;;5007377;28;20075;-60
2023/07/02 05:30:28;;;;;;;3.42;2.35;;;;;;;;;;5024449;28;20029;-60
2023/07/02 05:32:59;;;;;;;4.40;2.58;;;;;;;;;;5049702;28;20056;-60
2023/07/02 05:38:37;;;;;;;4.22;3.08;;;;;;;;;;5021206;28;20502;-62
2023/07/02 05:41:21;;;;;;;7.40;3.15;;;;;;;;;;5040247;28;20041;-61
2023/07/02 05:44:00;;;;;;;;;;;;;;;;;;;;;
2023/07/02 05:46:34;;;;;;;4.65;3.22;;;;;;;;;;5012615;28;20350;-60
2023/07/02 05:49:05;;;;;;;7.68;3.90;;;;;;;;;;5014970;28;20079;-61
2023/07/02 05:51:41;;;;;;;6.85;3.92;;;;;;;;;;5016333;28;20025;-62
2023/07/02 05:54:20;;;;;;;;;;;;;;;;;;;;;
2023/07/02 05:57:10;;;;;;;4.07;3.45;;;;;;;;;;5038645;28;20132;-62
2023/07/02 05:59:46;;;;;;;6.60;3.28;;;;;;;;;;5026069;28;20037;-61
2023/07/02 06:02:32;;;;;;;4.95;3.33;;;;;;;;;;5034502;28;20095;-62
2023/07/02 06:05:12;;;;;;;3.97;3.17;;;;;;;;;;5021198;28;20096;-61
2023/07/02 06:07:56;;;;;;;4.50;2.90;;;;;;;;;;5015114;28;20030;-61
2023/07/02 06:10:59;;;;;;;;;;;;;;;;;;;;;
2023/07/02 06:16:26;;;;;;;4.72;3.05;;;;;;;;;;5020245;28;20506;-61
2023/07/02 06:18:58;;;;;;;6.10;4.03;;;;;;;;;;5028283;28;20029;-61
2023/07/02 06:21:30;;;;;;;8.93;4.05;;;;;;;;;;5000371;28;20025;-61
2023/07/02 06:24:01;;;;;;;6.40;4.30;;;;;;;;;;5011926;28;20030;-61
2023/07/02 06:26:32;;;;;;;5.78;4.35;;;;;;;;;;5010067;28;20040;-60
2023/07/02 06:29:00;;;;;;;7.45;5.10;;;;;;;;;;5023423;28;20034;-62
2023/07/02 06:31:38;;;;;;;7.07;4.65;;;;;;;;;;5025607;28;20038;-59
2023/07/02 06:34:09;;;;;;;12.43;5.60;;;;;;;;;;5018241;28;20021;-59
2023/07/02 06:36:38;;;;;;;7.95;5.43;;;;;;;;;;5026661;28;20030;-59
2023/07/02 06:39:10;;;;;;;7.00;4.80;;;;;;;;;;5028772;28;20112;-60
2023/07/02 06:41:51;;;;;;;8.55;5.53;;;;;;;;;;5009523;28;20034;-61
2023/07/02 06:45:07;;;;;;;9.10;5.65;;;;;;;;;;5025644;28;20065;-61
2023/07/02 06:47:24;;;;;;;8.20;5.78;;;;;;;;;;5010754;28;20037;-60
2023/07/02 06:49:59;;;;;;;8.75;6.03;;;;;;;;;;4994822;28;20036;-60
2023/07/02 06:52:34;;;;;;;10.82;6.53;;;;;;;;;;5033586;28;20040;-60
2023/07/02 06:55:04;;;;;;;10.40;5.20;;;;;;;;;;5024002;28;20148;-60
2023/07/02 06:57:35;;;;;;;9.50;5.43;;;;;;;;;;5015111;28;20032;-60
2023/07/02 07:00:04;;;;;;;11.15;6.07;;;;;;;;;;5015432;28;20132;-60
2023/07/02 07:02:38;;;;;;;7.05;5.55;;;;;;;;;;5033475;28;20121;-60
2023/07/02 07:05:09;;;;;;;8.40;5.18;;;;;;;;;;5032560;28;20029;-60
2023/07/02 07:08:14;;;;;;;8.25;7.13;;;;;;;;;;5032534;28;20044;-60
2023/07/02 07:10:56;;;;;;;10.43;6.45;;;;;;;;;;5031060;28;20060;-60
2023/07/02 07:13:24;;;;;;;7.97;6.90;;;;;;;;;;5015464;28;20052;-60
2023/07/02 07:16:02;;;;;;;11.75;6.25;;;;;;;;;;5032371;28;20071;-60
2023/07/02 07:18:48;;;;;;;9.43;5.63;;;;;;;;;;5032719;28;20040;-60
2023/07/02 07:21:26;;;;;;;8.43;6.20;;;;;;;;;;5016070;28;20037;-60
2023/07/02 07:24:04;;;;;;;9.63;6.18;;;;;;;;;;5027260;28;20034;-60
2023/07/02 07:26:33;;;;;;;8.93;5.47;;;;;;;;;;5030707;28;20083;-60
2023/07/02 07:29:08;;;;;;;9.70;5.88;;;;;;;;;;5032189;28;20091;-60
2023/07/02 07:31:44;;;;;;;12.07;6.78;;;;;;;;;;5032847;28;20029;-60
2023/07/02 07:34:17;;;;;;;9.75;6.60;;;;;;;;;;5032762;28;20104;-60
2023/07/02 07:36:46;;;;;;;10.85;7.25;;;;;;;;;;5013048;28;20478;-60
2023/07/02 07:39:12;;;;;;;9.15;6.60;;;;;;;;;;5032772;28;20022;-60
2023/07/02 07:41:51;;;;;;;9.57;7.57;;;;;;;;;;5014896;28;20083;-61
2023/07/02 07:44:28;;;;;;;14.10;7.70;;;;;;;;;;5032731;28;20029;-60
2023/07/02 07:47:03;;;;;;;12.68;8.30;;;;;;;;;;5030744;28;20076;-60
2023/07/02 07:49:39;;;;;;;9.23;6.78;;;;;;;;;;5029768;28;20467;-60
2023/07/02 07:52:17;;;;;;;12.27;7.90;;;;;;;;;;5028720;28;20071;-60
2023/07/02 07:54:50;;;;;;;11.48;7.78;;;;;;;;;;5029488;28;20037;-60
2023/07/02 07:57:44;;;;;;;11.68;7.82;;;;;;;;;;5013920;28;20417;-61
2023/07/02 08:00:15;;;;;;;9.82;7.47;;;;;;;;;;5015408;28;20029;-61
2023/07/02 08:03:05;;;;;;;10.20;8.02;;;;;;;;;;5032263;28;20110;-61
2023/07/02 08:05:45;;;;;;;12.57;8.75;;;;;;;;;;5023053;28;20137;-61
2023/07/02 08:08:14;;;;;;;11.45;7.65;;;;;;;;;;5014190;28;20390;-62
2023/07/02 08:10:43;;;;;;;10.75;7.53;;;;;;;;;;5010010;28;20030;-61
2023/07/02 08:13:21;;;;;;;12.60;8.23;;;;;;;;;;5031908;28;20025;-61
2023/07/02 08:18:58;;;;;;;;;;;;;;;;;;5025538;28;20034;-61
2023/07/02 08:21:30;;;;;;;9.93;8.05;;;;;;;;;;5029848;28;19905;-61
2023/07/02 08:24:15;;;;;;;;;;;;;;;;;;;;;
2023/07/02 08:26:50;;;;;;;12.48;7.38;;;;;;;;;;5027600;28;20041;-61
2023/07/02 08:29:30;;;;;;;12.30;8.07;;;;;;;;;;5031735;28;20035;-61
2023/07/02 08:32:11;;;;;;;10.10;7.88;;;;;;;;;;5031682;28;20033;-61
2023/07/02 08:34:40;;;;;;;;;;;;;;;;;;5005265;28;20123;-61
2023/07/02 08:37:24;;;;;;;11.45;7.40;;;;;;;;;;5014040;28;19909;-61
2023/07/02 08:39:59;;;;;;;12.35;9.23;;;;;;;;;;5013881;28;20052;-61
2023/07/02 08:42:46;;;;;;;11.85;9.30;;;;;;;;;;5013738;28;20091;-61
2023/07/02 08:45:29;;;;;;;12.50;8.25;;;;;;;;;;5030693;28;20076;-61
2023/07/02 08:48:02;;;;;;;11.63;7.60;;;;;;;;;;5027751;28;20029;-61
2023/07/02 08:50:39;;;;;;;10.25;8.48;;;;;;;;;;5013538;28;20086;-61
2023/07/02 08:53:18;;;;;;;9.73;7.70;;;;;;;;;;4998397;28;20422;-62
2023/07/02 08:55:45;;;;;;;11.13;7.60;;;;;;;;;;5011408;28;20156;-61
2023/07/02 08:58:30;;;;;;;12.38;7.80;;;;;;;;;;5030998;28;20503;-61
2023/07/02 09:01:29;;;;;;;15.55;8.20;;;;;;;;;;5031263;28;20017;-61
2023/07/02 09:04:05;;;;;;;11.40;8.18;;;;;;;;;;4993880;28;20399;-62
2023/07/02 09:06:40;;;;;;;13.35;9.07;;;;;;;;;;5028137;28;20057;-61
2023/07/02 09:09:27;;;;;;;;;;;;;;;;;;;;;
2023/07/02 09:12:02;;;;;;;10.95;8.10;;;;;;;;;;5027102;28;20052;-59
2023/07/02 09:14:32;;;;;;;12.10;8.18;;;;;;;;;;5017712;28;20036;-59
2023/07/02 09:17:22;;;;;;;13.57;7.40;;;;;;;;;;5016413;28;20061;-59
2023/07/02 09:23:03;;;;;;;8.38;6.68;;;;;;;;;;5029560;28;20084;-59
2023/07/02 09:25:48;;;;;;;8.57;6.68;;;;;;;;;;5013408;28;20128;-60
2023/07/02 09:28:21;;;;;;;10.02;7.85;;;;;;;;;;5035134;28;20021;-61
2023/07/02 09:31:09;;;;;;;10.77;7.57;;;;;;;;;;5035227;28;20036;-61
2023/07/02 09:33:35;;;;;;;9.15;6.15;;;;;;;;;;5003606;28;20029;-61
2023/07/02 09:36:40;;;;;;;9.50;7.07;;;;;;;;;;5034016;28;20107;-60
2023/07/02 09:39:04;;;;;;;7.63;6.40;;;;;;;;;;5034107;28;20071;-61
2023/07/02 09:41:54;;;;;;;7.33;6.57;;;;;;;;;;5034543;28;20414;-61
2023/07/02 09:44:31;;;;;;;10.53;7.27;;;;;;;;;;5014402;28;20479;-60
2023/07/02 09:47:12;;;;;;;12.20;6.97;;;;;;;;;;5031663;28;20030;-61
2023/07/02 09:49:58;;;;;;;11.80;7.18;;;;;;;;;;5026688;28;20395;-61
2023/07/02 09:52:28;;;;;;;10.90;7.85;;;;;;;;;;5034809;28;20014;-61
2023/07/02 09:55:03;;;;;;;10.77;7.00;;;;;;;;;;5032544;28;20033;-60
2023/07/02 09:57:38;;;;;;;9.55;6.93;;;;;;;;;;5034592;28;20256;-61
2023/07/02 10:00:08;;;;;;;9.18;7.40;;;;;;;;;;5034591;28;20101;-61
2023/07/02 10:02:40;;;;;;;14.05;8.55;;;;;;;;;;5033204;28;20471;-62
2023/07/02 10:05:10;;;;;;;11.68;8.65;;;;;;;;;;5029395;28;20060;-62
2023/07/02 10:07:47;;;;;;;9.50;8.20;;;;;;;;;;5034599;28;20049;-60
2023/07/02 10:13:12;;;;;;;7.85;6.10;;;;;;;;;;5034359;28;20086;-60
2023/07/02 10:16:02;;;;;;;11.25;7.68;;;;;;;;;;5014532;28;20231;-61
2023/07/02 10:18:34;;;;;;;11.10;8.43;;;;;;;;;;5005161;28;20090;-60
2023/07/02 10:21:24;;;;;;;12.00;9.90;;;;;;;;;;5014802;28;20323;-61
2023/07/02 10:23:53;;;;;;;;;;;;;;;;;;5014359;28;20033;-60
2023/07/02 10:26:27;;;;;;;15.05;10.35;;;;;;;;;;5022852;28;19970;-61
2023/07/02 10:29:09;;;;;;;13.55;10.48;;;;;;;;;;5010133;28;20048;-61
2023/07/02 10:31:56;;;;;;;14.50;11.65;;;;;;;;;;5033528;28;20463;-61
2023/07/02 10:34:41;;;;;;;13.80;9.52;;;;;;;;;;5016107;28;20506;-61
2023/07/02 10:37:12;;;;;;;11.38;9.85;;;;;;;;;;5034132;28;20026;-60
2023/07/02 10:39:45;;;;;;;10.80;9.25;;;;;;;;;;5016422;28;20032;-60
2023/07/02 10:42:40;;;;;;;;;;;;;;;;;;;;;
2023/07/02 10:45:21;;;;;;;11.88;8.05;;;;;;;;;;5013356;28;20041;-61
2023/07/02 10:47:49;;;;;;;;;;;;;;;;;;5015003;28;20022;-61
2023/07/02 10:50:29;;;;;;;11.32;8.13;;;;;;;;;;5015090;28;19909;-61
2023/07/02 10:53:25;;;;;;;10.20;8.18;;;;;;;;;;5034102;28;20026;-61
2023/07/02 10:56:03;;;;;;;14.38;9.40;;;;;;;;;;5029881;28;20051;-61
2023/07/02 10:58:30;;;;;;;13.80;8.93;;;;;;;;;;5017525;28;20099;-60
2023/07/02 11:01:32;;;;;;;14.05;8.82;;;;;;;;;;5033292;28;20033;-60
2023/07/02 11:04:20;;;;;;;14.20;9.35;;;;;;;;;;4934285;29;20063;-61
2023/07/02 11:06:48;;;;;;;10.80;8.85;;;;;;;;;;4955782;28;20037;-60
2023/07/02 11:09:22;;;;;;;12.80;8.38;;;;;;;;;;5013923;28;20440;-60
2023/07/02 11:11:59;;;;;;;11.23;8.38;;;;;;;;;;5013238;28;20037;-60
2023/07/02 11:14:41;;;;;;;14.82;9.10;;;;;;;;;;5025047;28;20578;-61
2023/07/02 11:17:22;;;;;;;11.10;8.52;;;;;;;;;;5033418;28;20029;-60
2023/07/02 11:19:54;;;;;;;14.18;8.98;;;;;;;;;;5033072;28;20063;-61
2023/07/02 11:22:46;;;;;;;;;;;;;;;;;;;;;
2023/07/02 11:25:37;;;;;;;12.75;9.30;;;;;;;;;;5020447;28;20038;-60
2023/07/02 11:28:08;;;;;;;12.90;8.77;;;;;;;;;;5028051;28;20462;-61
2023/07/02 11:30:47;;;;;;;13.77;8.25;;;;;;;;;;5015018;28;20053;-61
2023/07/02 11:33:29;;;;;;;;;;;;;;;;;;;;;
2023/07/02 11:36:04;;;;;;;10.43;7.65;;;;;;;;;;5021932;28;20045;-60
2023/07/02 11:38:31;;;;;;;10.30;7.22;;;;;;;;;;5030957;28;20121;-60
2023/07/02 11:41:29;;;;;;;10.73;7.78;;;;;;;;;;5032383;28;20033;-60
2023/07/02 11:44:04;;;;;;;11.63;8.80;;;;;;;;;;4954460;28;20057;-60
2023/07/02 11:46:51;;;;;;;10.05;9.00;;;;;;;;;;5023663;28;20030;-60
2023/07/02 11:49:28;;;;;;;12.57;8.10;;;;;;;;;;5033010;28;20083;-59
2023/07/02 11:52:09;;;;;;;10.80;8.63;;;;;;;;;;5014609;28;20045;-60
2023/07/02 11:54:47;;;;;;;10.32;7.72;;;;;;;;;;5013884;28;20059;-61
2023/07/02 11:57:26;;;;;;;11.93;8.68;;;;;;;;;;5023081;28;20026;-61
2023/07/02 12:02:56;;;;;;;13.43;10.00;;;;;;;;;;5012893;28;20069;-61
2023/07/02 12:05:28;;;;;;;11.95;7.72;;;;;;;;;;5013241;28;20065;-61
2023/07/02 12:10:53;;;;;;;9.23;7.65;;;;;;;;;;5020693;28;20383;-61
2023/07/02 12:13:23;;;;;;;11.30;8.18;;;;;;;;;;5014006;28;20506;-61
2023/07/02 12:15:58;;;;;;;11.50;8.00;;;;;;;;;;5030722;28;20043;-61
2023/07/02 12:18:30;;;;;;;14.27;8.55;;;;;;;;;;5020819;28;20033;-61
2023/07/02 12:20:56;;;;;;;9.18;8.07;;;;;;;;;;5013479;28;20029;-61
2023/07/02 12:23:26;;;;;;;13.00;8.43;;;;;;;;;;5029175;28;20477;-61
2023/07/02 12:25:56;;;;;;;11.73;8.88;;;;;;;;;;5024559;28;20038;-61
2023/07/02 12:28:57;;;;;;;10.55;8.07;;;;;;;;;;5031949;28;20053;-61
2023/07/02 12:31:42;;;;;;;12.20;8.73;;;;;;;;;;5029485;28;20709;-61
2023/07/02 12:34:11;;;;;;;12.98;7.13;;;;;;;;;;5019612;28;20353;-61
2023/07/02 12:36:44;;;;;;;14.75;8.88;;;;;;;;;;5029782;28;20152;-61
2023/07/02 12:39:16;;;;;;;9.05;7.82;;;;;;;;;;5013892;28;20026;-61
2023/07/02 12:41:48;;;;;;;11.68;8.85;;;;;;;;;;5031405;28;20025;-61
2023/07/02 12:44:27;;;;;;;10.95;6.88;;;;;;;;;;5031588;28;20029;-61
2023/07/02 12:46:54;;;;;;;11.87;7.70;;;;;;;;;;5029546;28;20041;-61
2023/07/02 12:49:26;;;;;;;12.15;8.18;;;;;;;;;;5030323;28;20267;-60
2023/07/02 12:51:55;;;;;;;11.95;7.82;;;;;;;;;;5031760;28;20029;-60
2023/07/02 12:54:26;;;;;;;12.25;9.20;;;;;;;;;;5031277;28;20023;-61
2023/07/02 12:57:14;;;;;;;11.23;7.97;;;;;;;;;;5016371;28;20029;-60
2023/07/02 12:59:43;;;;;;;8.38;7.55;;;;;;;;;;5031570;28;20034;-60
2023/07/02 13:02:15;;;;;;;11.15;7.65;;;;;;;;;;5021264;28;20030;-60
2023/07/02 13:04:51;;;;;;;10.55;7.78;;;;;;;;;;5022586;28;20427;-60
2023/07/02 13:07:23;;;;;;;12.18;7.65;;;;;;;;;;5013703;28;20530;-60
2023/07/02 13:09:56;;;;;;;15.02;8.95;;;;;;;;;;5031696;28;20030;-61
2023/07/02 13:12:39;;;;;;;;;;;;;;;;;;;;;
2023/07/02 13:15:25;;;;;;;11.25;7.97;;;;;;;;;;5029757;28;20037;-60
2023/07/02 13:17:52;;;;;;;11.52;8.68;;;;;;;;;;5013657;28;20116;-60
2023/07/02 13:20:21;;;;;;;12.38;7.85;;;;;;;;;;5031549;28;20033;-61
2023/07/02 13:23:00;;;;;;;12.73;8.98;;;;;;;;;;5024488;28;20463;-61
2023/07/02 13:25:32;;;;;;;11.32;7.45;;;;;;;;;;5027753;28;20042;-61
2023/07/02 13:28:01;;;;;;;11.85;8.43;;;;;;;;;;5019360;28;20037;-61
2023/07/02 13:33:28;;;;;;;11.02;7.97;;;;;;;;;;5031324;28;20038;-61
2023/07/02 13:36:05;;;;;;;11.60;8.73;;;;;;;;;;5030235;28;20033;-61
2023/07/02 13:38:37;;;;;;;14.95;8.45;;;;;;;;;;5031598;28;20463;-61
2023/07/02 13:41:09;;;;;;;9.98;7.55;;;;;;;;;;5001128;28;20025;-61
2023/07/02 13:43:45;;;;;;;10.45;8.55;;;;;;;;;;5030481;28;20032;-61
2023/07/02 13:46:16;;;;;;;9.80;7.65;;;;;;;;;;5029679;28;20163;-61
2023/07/02 13:51:40;;;;;;;9.23;7.65;;;;;;;;;;5016705;28;20032;-62
2023/07/02 13:54:15;;;;;;;9.50;7.43;;;;;;;;;;5031232;28;20163;-61
2023/07/02 13:56:53;;;;;;;9.05;7.35;;;;;;;;;;5008364;28;20144;-61
2023/07/02 14:02:16;;;;;;;10.10;7.57;;;;;;;;;;5019635;28;20468;-60
2023/07/02 14:04:48;;;;;;;10.90;7.75;;;;;;;;;;5033737;28;20029;-62
2023/07/02 14:07:17;;;;;;;13.45;9.32;;;;;;;;;;5016180;28;20462;-62
2023/07/02 14:09:44;;;;;;;11.95;8.40;;;;;;;;;;5034686;28;20048;-62
2023/07/02 14:12:17;;;;;;;9.10;7.22;;;;;;;;;;5015026;28;20108;-61
2023/07/02 14:14:51;;;;;;;14.00;8.48;;;;;;;;;;4996148;28;20486;-60
2023/07/02 14:17:26;;;;;;;10.25;8.48;;;;;;;;;;5031694;28;20030;-61
2023/07/02 14:20:02;;;;;;;9.27;7.88;;;;;;;;;;5034147;28;20026;-62
2023/07/02 14:22:42;;;;;;;13.43;8.40;;;;;;;;;;5024871;28;20495;-62
2023/07/02 14:25:09;;;;;;;10.93;8.15;;;;;;;;;;5024903;28;20038;-62
2023/07/02 14:27:51;;;;;;;11.48;8.00;;;;;;;;;;5030266;28;20530;-62
2023/07/02 14:30:28;;;;;;;12.00;7.82;;;;;;;;;;5030715;28;20056;-61
2023/07/02 14:33:00;;;;;;;13.50;7.85;;;;;;;;;;5016098;28;20021;-61
2023/07/02 14:35:27;;;;;;;9.50;7.35;;;;;;;;;;5014121;28;20372;-61
2023/07/02 14:37:56;;;;;;;9.57;8.48;;;;;;;;;;5030528;28;20037;-61
2023/07/02 14:40:31;;;;;;;10.15;7.57;;;;;;;;;;5033737;28;20044;-61
2023/07/02 14:43:24;;;;;;;;;;;;;;;;;;;;;
2023/07/02 14:45:57;;;;;;;16.55;8.27;;;;;;;;;;5013555;28;20042;-60
2023/07/02 14:51:47;;;;;;;10.57;8.32;;;;;;;;;;4998582;28;20026;-61
2023/07/02 14:54:13;;;;;;;9.82;7.93;;;;;;;;;;5030362;28;20036;-62
2023/07/02 14:56:42;;;;;;;13.20;8.43;;;;;;;;;;5032292;28;20030;-62
2023/07/02 14:59:19;;;;;;;10.43;8.18;;;;;;;;;;5033542;28;20017;-61
2023/07/02 15:01:48;;;;;;;10.52;8.43;;;;;;;;;;5015337;28;20025;-61
2023/07/02 15:04:19;;;;;;;11.00;8.25;;;;;;;;;;5032596;28;20028;-60
2023/07/02 15:06:49;;;;;;;9.95;7.68;;;;;;;;;;5026088;28;20017;-61
2023/07/02 15:09:26;;;;;;;8.63;7.13;;;;;;;;;;5033262;28;20032;-61
2023/07/02 15:11:55;;;;;;;10.52;8.57;;;;;;;;;;5015236;28;20485;-61
2023/07/02 15:14:38;;;;;;;12.70;8.88;;;;;;;;;;5033477;28;20033;-61
2023/07/02 15:17:04;;;;;;;10.80;8.35;;;;;;;;;;5015288;28;20387;-61
2023/07/02 15:19:33;;;;;;;12.38;8.57;;;;;;;;;;5024167;28;20036;-61
2023/07/02 15:22:04;;;;;;;11.98;8.27;;;;;;;;;;5032995;28;20026;-61
2023/07/02 15:24:33;;;;;;;13.35;8.63;;;;;;;;;;5033208;28;20356;-61
2023/07/02 15:27:02;;;;;;;10.85;9.00;;;;;;;;;;5032616;28;20048;-59
2023/07/02 15:29:28;;;;;;;11.02;8.65;;;;;;;;;;5015138;28;20479;-60
2023/07/02 15:31:58;;;;;;;12.02;8.00;;;;;;;;;;5032156;28;20022;-60
2023/07/02 15:34:26;;;;;;;13.48;8.13;;;;;;;;;;5032329;28;20463;-61
2023/07/02 15:36:55;;;;;;;9.75;8.75;;;;;;;;;;5032113;28;20456;-61
2023/07/02 15:39:26;;;;;;;13.05;9.75;;;;;;;;;;5032856;28;20025;-61
2023/07/02 15:41:59;;;;;;;11.18;8.25;;;;;;;;;;5014744;28;20029;-61
2023/07/02 15:44:37;;;;;;;9.55;7.97;;;;;;;;;;5032765;28;20029;-61
2023/07/02 15:47:06;;;;;;;8.85;7.93;;;;;;;;;;5013745;28;20033;-61
2023/07/02 15:49:37;;;;;;;10.18;8.10;;;;;;;;;;5023452;28;20029;-61
2023/07/02 15:52:13;;;;;;;10.98;8.38;;;;;;;;;;5033653;28;20388;-61
2023/07/02 15:54:46;;;;;;;10.32;8.10;;;;;;;;;;5009983;28;20068;-61
2023/07/02 15:57:15;;;;;;;12.63;8.98;;;;;;;;;;5034208;28;20025;-61
2023/07/02 15:59:51;;;;;;;11.13;8.77;;;;;;;;;;5031763;28;20040;-60
2023/07/02 16:02:25;;;;;;;12.82;9.02;;;;;;;;;;5031365;28;20021;-61
2023/07/02 16:04:57;;;;;;;11.77;8.60;;;;;;;;;;5009621;28;20025;-61
2023/07/02 16:10:27;;;;;;;12.38;8.05;;;;;;;;;;5032131;28;20040;-61
2023/07/02 16:13:02;;;;;;;11.75;8.70;;;;;;;;;;5020219;28;20483;-61
2023/07/02 16:15:38;;;;;;;12.05;8.52;;;;;;;;;;5030476;28;20056;-61
2023/07/02 16:18:08;;;;;;;12.23;9.75;;;;;;;;;;5032583;28;20056;-61
2023/07/02 16:20:34;;;;;;;;;;;;;;;;;;5014411;28;20513;-61
2023/07/02 16:23:13;;;;;;;10.93;7.72;;;;;;;;;;5013584;28;19905;-61
2023/07/02 16:25:40;;;;;;;11.10;8.25;;;;;;;;;;5015334;28;20022;-60
2023/07/02 16:28:09;;;;;;;9.23;8.27;;;;;;;;;;5023118;28;20042;-61
2023/07/02 16:30:38;;;;;;;13.57;8.25;;;;;;;;;;5033110;28;20446;-61
2023/07/02 16:33:13;;;;;;;9.60;7.88;;;;;;;;;;5039748;28;20029;-61
2023/07/02 16:35:57;;;;;;;10.35;8.65;;;;;;;;;;5027542;28;20124;-61
2023/07/02 16:38:29;;;;;;;10.57;9.32;;;;;;;;;;5030230;28;20028;-61
2023/07/02 16:40:55;;;;;;;11.40;8.85;;;;;;;;;;5007393;28;20116;-61
2023/07/02 16:43:37;;;;;;;10.18;8.35;;;;;;;;;;5031922;28;20025;-61